Time;durP1;ratioP1;P1;durP2;ratioP2;P2;SDS_P1;SDS_P2;PMS_P1;PMS_P2;Temp;Humidity;BMP_temperature;BMP_pressure;BME280_temperature;BME280_humidity;BME280_pressure;Samples;Min_cycle;Max_cycle;Signal;HPM_P1;HPM_P2
2022/04/26 03:37:41;;;;;;;3.95;3.30;;;;;;;15.72;58.30;101066.05;1627288;87;21091;-66
2022/04/26 03:40:10;;;;;;;3.87;3.47;;;;;;;15.73;58.39;101065.11;1627303;87;21409;-67
2022/04/26 03:42:39;;;;;;;5.58;3.30;;;;;;;15.72;58.35;101069.98;1627352;87;21067;-67
2022/04/26 03:45:08;;;;;;;3.42;2.85;;;;;;;15.71;58.43;101065.62;1627397;87;21071;-66
2022/04/26 03:47:36;;;;;;;4.37;2.70;;;;;;;15.72;58.39;101069.11;1624728;87;21011;-67
2022/04/26 03:50:06;;;;;;;3.15;2.85;;;;;;;15.72;58.37;101073.91;1626845;88;21072;-66
2022/04/26 03:52:32;;;;;;;4.30;2.85;;;;;;;15.72;58.36;101075.22;1627409;87;20983;-65
2022/04/26 03:55:03;;;;;;;2.90;2.67;;;;;;;15.73;58.38;101083.47;1627195;87;21074;-66
2022/04/26 03:57:32;;;;;;;3.30;3.00;;;;;;;15.73;58.55;101083.47;1622497;87;21052;-66
2022/04/26 03:59:58;;;;;;;3.72;3.08;;;;;;;15.75;58.66;101082.09;1627466;87;21107;-66
2022/04/26 04:02:26;;;;;;;3.65;3.27;;;;;;;15.76;58.83;101087.31;1627190;87;21019;-66
2022/04/26 04:04:52;;;;;;;5.37;3.60;;;;;;;15.78;58.95;101084.17;1627117;87;21075;-66
2022/04/26 04:07:19;;;;;;;4.03;3.47;;;;;;;15.81;59.04;101087.97;1627160;87;21059;-66
2022/04/26 04:09:48;;;;;;;4.60;4.03;;;;;;;15.84;59.12;101086.56;1627330;86;21536;-66
2022/04/26 04:12:16;;;;;;;5.20;3.70;;;;;;;15.85;59.04;101090.87;1627346;87;21047;-66
2022/04/26 04:14:43;;;;;;;4.90;3.70;;;;;;;15.87;59.13;101090.36;1627326;88;21067;-66
2022/04/26 04:17:10;;;;;;;6.45;3.95;;;;;;;15.88;59.22;101097.34;1631611;86;21124;-66
2022/04/26 04:19:37;;;;;;;4.10;3.62;;;;;;;15.92;59.38;101100.25;1633922;86;21605;-66
2022/04/26 04:22:05;;;;;;;6.17;3.77;;;;;;;15.94;59.49;101095.79;1633895;86;21111;-67
2022/04/26 04:24:32;;;;;;;6.53;4.12;;;;;;;15.98;59.63;101113.12;1603049;87;21058;-66
2022/04/26 04:26:59;;;;;;;4.53;3.58;;;;;;;16.01;59.80;101110.38;1595879;88;21103;-66
2022/04/26 04:29:27;;;;;;;6.65;3.95;;;;;;;16.04;59.86;101112.89;1602605;88;21588;-66
2022/04/26 04:31:55;;;;;;;5.40;3.52;;;;;;;16.10;59.97;101111.80;1602361;89;21103;-66
2022/04/26 04:34:22;;;;;;;6.83;4.10;;;;;;;16.14;60.02;101106.82;1632520;86;21131;-66
2022/04/26 04:36:49;;;;;;;10.98;3.98;;;;;;;16.17;60.02;101108.89;1634020;86;21040;-65
2022/04/26 04:39:20;;;;;;;5.60;3.40;;;;;;;16.22;60.13;101113.48;1636434;86;21056;-65
2022/04/26 04:41:47;;;;;;;4.55;3.40;;;;;;;16.27;60.15;101115.48;1633528;86;21036;-65
2022/04/26 04:44:13;;;;;;;4.28;3.30;;;;;;;16.31;60.21;101116.22;1636403;86;21087;-65
2022/04/26 04:46:40;;;;;;;4.00;3.62;;;;;;;16.37;60.35;101121.22;1636184;86;21550;-66
2022/04/26 04:49:08;;;;;;;3.95;3.47;;;;;;;16.43;60.33;101114.86;1636159;86;21109;-65
2022/04/26 04:51:36;;;;;;;5.62;3.80;;;;;;;16.48;60.13;101115.55;1634423;86;21070;-65
2022/04/26 04:54:04;;;;;;;5.05;4.45;;;;;;;16.52;60.18;101114.54;1602466;87;21570;-66
2022/04/26 04:56:31;;;;;;;4.45;3.52;;;;;;;16.56;60.32;101112.19;1602981;87;21096;-65
2022/04/26 04:58:59;;;;;;;6.65;3.50;;;;;;;16.62;60.33;101116.73;1605405;87;21070;-66
2022/04/26 05:01:26;;;;;;;4.17;3.52;;;;;;;16.68;60.32;101115.62;1593975;89;21547;-65
2022/04/26 05:03:55;;;;;;;5.97;3.70;;;;;;;16.73;60.20;101115.81;1633426;86;21075;-65
2022/04/26 05:06:23;;;;;;;8.28;4.15;;;;;;;16.78;60.03;101119.58;1633920;86;21039;-65
2022/04/26 05:08:50;;;;;;;4.50;4.05;;;;;;;16.79;59.92;101121.30;1630336;86;21056;-66
2022/04/26 05:11:18;;;;;;;5.15;4.35;;;;;;;16.77;60.05;101128.39;1636309;86;21595;-65
2022/04/26 05:13:46;;;;;;;6.58;4.35;;;;;;;16.77;60.21;101128.39;1636424;86;21076;-65
2022/04/26 05:16:13;;;;;;;3.77;3.37;;;;;;;16.83;60.39;101132.95;1636309;86;21124;-65
2022/04/26 05:18:39;;;;;;;5.67;5.10;;;;;;;16.92;60.47;101136.94;1626379;87;21611;-65
2022/04/26 05:21:10;;;;;;;5.92;4.55;;;;;;;17.01;60.36;101143.14;1627528;87;21557;-65
2022/04/26 05:26:22;;;;;;;7.58;4.40;;;;;;;17.18;60.22;101140.66;1627501;88;21071;-67
2022/04/26 05:28:49;;;;;;;125.85;14.38;;;;;;;17.30;60.22;101137.50;1627399;87;21039;-66
2022/04/26 05:31:16;;;;;;;10.70;4.80;;;;;;;17.40;60.21;101133.55;1627558;87;21048;-65
2022/04/26 05:33:43;;;;;;;6.87;4.60;;;;;;;17.51;60.00;101140.55;1627392;87;21099;-66
2022/04/26 05:36:10;;;;;;;6.85;4.05;;;;;;;17.71;60.50;101144.46;1627431;87;21497;-64
2022/04/26 05:38:38;;;;;;;5.97;4.30;;;;;;;18.11;60.08;101145.28;1627225;87;21048;-66
2022/04/26 05:41:05;;;;;;;7.70;4.83;;;;;;;18.51;58.82;101143.34;1627500;87;21066;-65
2022/04/26 05:46:02;;;;;;;5.78;4.28;;;;;;;19.55;57.01;101146.91;1559803;91;21144;-65
2022/04/26 05:48:31;;;;;;;7.78;4.17;;;;;;;20.16;55.27;101145.31;1559854;90;21106;-66
2022/04/26 05:50:57;;;;;;;6.30;3.80;;;;;;;20.75;53.55;101139.36;1559783;91;21091;-65
2022/04/26 05:53:24;;;;;;;5.30;3.40;;;;;;;21.38;52.07;101145.31;1559832;92;21098;-67
2022/04/26 05:55:50;;;;;;;6.22;3.85;;;;;;;22.08;50.36;101149.34;1559334;91;21082;-66
2022/04/26 05:58:17;;;;;;;3.52;3.05;;;;;;;22.77;47.94;101150.62;1559803;90;21146;-65
2022/04/26 06:00:46;;;;;;;7.30;3.65;;;;;;;23.26;46.10;101150.84;1559610;91;21075;-66
2022/04/26 06:03:13;;;;;;;5.50;3.17;;;;;;;23.71;44.94;101145.05;1559658;91;21082;-66
2022/04/26 06:05:41;;;;;;;4.30;3.27;;;;;;;24.06;43.41;101146.09;1559561;91;21579;-65
2022/04/26 06:08:11;;;;;;;4.67;3.15;;;;;;;24.35;42.65;101151.11;1559828;90;21150;-65
2022/04/26 06:10:39;;;;;;;5.78;3.37;;;;;;;24.73;42.39;101155.83;1559750;91;21090;-63
2022/04/26 06:13:08;;;;;;;4.20;3.10;;;;;;;25.22;41.62;101159.67;1559872;90;21090;-63
2022/04/26 06:15:36;;;;;;;5.70;3.55;;;;;;;25.78;40.45;101152.18;1545600;90;21582;-63
2022/04/26 06:18:06;;;;;;;7.42;3.00;;;;;;;26.27;39.48;101158.48;1562775;91;21060;-63
2022/04/26 06:20:33;;;;;;;4.87;3.30;;;;;;;27.02;37.50;101156.69;1563290;91;21135;-62
2022/04/26 06:23:02;;;;;;;6.45;3.58;;;;;;;27.02;37.50;101156.69;1561329;91;21079;-63
2022/04/26 06:25:32;;;;;;;8.85;4.30;;;;;;;27.28;35.94;101155.35;1562110;91;21154;-63
2022/04/26 06:28:00;;;;;;;9.23;6.00;;;;;;;27.32;35.75;101160.31;1554621;91;21082;-65
2022/04/26 06:30:27;;;;;;;7.22;5.85;;;;;;;27.28;35.68;101156.20;1561417;91;21537;-64
2022/04/26 06:32:55;;;;;;;7.12;4.37;;;;;;;27.25;34.98;101163.61;1563475;91;21049;-64
2022/04/26 06:35:22;;;;;;;5.60;4.00;;;;;;;27.18;34.57;101157.94;1563880;91;21382;-63
2022/04/26 06:37:50;;;;;;;7.20;3.70;;;;;;;27.06;34.89;101158.97;1562814;91;21080;-63
2022/04/26 06:40:18;;;;;;;6.40;4.35;;;;;;;27.01;34.87;101165.20;1561473;91;21119;-64
2022/04/26 06:42:45;;;;;;;4.65;3.40;;;;;;;26.96;35.25;101171.41;1597384;87;21042;-64
2022/04/26 06:45:13;;;;;;;4.92;3.37;;;;;;;26.87;35.67;101173.53;1636145;87;21065;-64
2022/04/26 06:47:40;;;;;;;5.85;3.20;;;;;;;26.80;35.64;101176.33;1601531;89;21125;-64
2022/04/26 06:50:08;;;;;;;4.12;3.25;;;;;;;26.69;36.00;101173.66;1600744;89;21062;-63
2022/04/26 06:52:36;;;;;;;6.15;3.52;;;;;;;26.74;35.90;101176.84;1587733;89;21077;-63
2022/04/26 06:55:04;;;;;;;5.62;3.15;;;;;;;26.83;35.78;101177.39;1634617;87;21100;-64
2022/04/26 06:57:31;;;;;;;4.50;3.20;;;;;;;26.91;35.79;101184.31;1634729;87;21111;-64
2022/04/26 06:59:58;;;;;;;6.97;3.00;;;;;;;26.97;35.05;101189.63;1634635;87;21098;-64
2022/04/26 07:02:24;;;;;;;6.17;3.10;;;;;;;27.01;35.10;101187.05;1635046;87;21502;-64
2022/04/26 07:04:52;;;;;;;5.97;2.80;;;;;;;27.11;34.64;101186.16;1601685;89;21070;-64
2022/04/26 07:07:19;;;;;;;6.15;3.42;;;;;;;27.30;34.52;101190.80;1636248;87;21050;-64
2022/04/26 07:09:46;;;;;;;4.70;2.47;;;;;;;27.49;34.12;101191.46;1635530;86;21537;-64
2022/04/26 07:12:19;;;;;;;3.55;2.58;;;;;;;27.67;33.43;101188.55;1780924;78;21151;-64
2022/04/26 07:14:47;;;;;;;5.58;2.77;;;;;;;27.81;32.97;101197.07;1776602;78;21037;-64
2022/04/26 07:17:17;;;;;;;3.77;2.50;;;;;;;27.95;33.28;101201.20;1776213;80;21006;-63
2022/04/26 07:19:44;;;;;;;3.55;2.02;;;;;;;28.07;32.83;101196.16;1781766;78;21014;-64
